createdAt,value
2023-02-18T00:00:35.671Z,10.20
2023-02-18T00:01:35.995Z,8.80
2023-02-18T00:02:36.056Z,8.90
2023-02-18T00:03:41.244Z,5.80
2023-02-18T00:04:35.755Z,4.40
2023-02-18T00:05:35.927Z,5.10
2023-02-18T00:06:36.070Z,4.10
2023-02-18T00:07:37.972Z,4.10
2023-02-18T00:08:42.188Z,4.40
2023-02-18T00:09:36.067Z,4.30
2023-02-18T00:10:36.240Z,5.30
2023-02-18T00:11:37.001Z,5.30
2023-02-18T00:12:35.604Z,11.50
2023-02-18T00:13:40.858Z,4.20
2023-02-18T00:14:35.745Z,4.90
2023-02-18T00:15:36.428Z,7.40
2023-02-18T00:16:35.582Z,4.40
2023-02-18T00:17:38.806Z,3.40
2023-02-18T00:18:35.592Z,5.00
2023-02-18T00:19:37.927Z,3.70
2023-02-18T00:20:35.785Z,3.70
2023-02-18T00:21:36.425Z,3.20
2023-02-18T00:22:35.388Z,11.20
2023-02-18T00:23:41.544Z,3.10
2023-02-18T00:24:35.513Z,6.20
2023-02-18T00:25:37.116Z,5.10
2023-02-18T00:26:35.881Z,11.10
2023-02-18T00:27:35.858Z,3.90
2023-02-18T00:28:35.639Z,6.50
2023-02-18T00:29:36.516Z,4.00
2023-02-18T00:30:35.328Z,4.10
2023-02-18T00:31:37.477Z,7.10
2023-02-18T00:32:35.872Z,3.70
2023-02-18T00:33:38.303Z,3.90
2023-02-18T00:34:36.263Z,3.90
2023-02-18T00:35:36.526Z,3.20
2023-02-18T00:36:35.205Z,3.90
2023-02-18T00:37:35.605Z,3.20
2023-02-18T00:38:40.018Z,6.00
2023-02-18T00:39:37.012Z,2.20
2023-02-18T00:40:35.113Z,2.90
2023-02-18T00:41:36.350Z,8.60
2023-02-18T00:42:35.112Z,2.90
2023-02-18T00:43:37.238Z,4.70
2023-02-18T00:44:35.439Z,4.50
2023-02-18T00:45:35.785Z,3.30
2023-02-18T00:46:35.939Z,4.10
2023-02-18T00:47:37.967Z,5.40
2023-02-18T00:48:36.389Z,5.80
2023-02-18T00:49:36.028Z,3.10
2023-02-18T00:50:36.004Z,3.70
2023-02-18T00:51:36.324Z,3.10
2023-02-18T00:52:35.190Z,3.00
2023-02-18T00:53:36.483Z,2.80
2023-02-18T00:54:34.923Z,3.80
2023-02-18T00:55:37.664Z,5.10
2023-02-18T00:56:35.152Z,7.00
2023-02-18T00:57:36.910Z,3.60
2023-02-18T00:58:34.880Z,2.90
2023-02-18T00:59:36.786Z,11.50
2023-02-18T01:00:35.043Z,4.10
2023-02-18T01:01:37.519Z,3.70
2023-02-18T01:02:35.893Z,6.50
2023-02-18T01:03:41.876Z,1.90
2023-02-18T01:04:34.847Z,4.00
2023-02-18T01:05:36.124Z,3.20
2023-02-18T01:06:34.792Z,5.70
2023-02-18T01:07:37.184Z,4.80
2023-02-18T01:08:41.020Z,11.80
2023-02-18T01:09:37.378Z,2.80
2023-02-18T01:10:35.693Z,2.80
2023-02-18T01:11:34.925Z,5.70
2023-02-18T01:12:35.515Z,3.40
2023-02-18T01:13:40.566Z,3.20
2023-02-18T01:14:34.880Z,3.40
2023-02-18T01:15:36.232Z,3.40
2023-02-18T01:16:35.010Z,7.00
2023-02-18T01:17:37.562Z,4.30
2023-02-18T01:18:35.809Z,2.30
2023-02-18T01:19:34.886Z,4.80
2023-02-18T01:21:52.766Z,3.20
2023-02-18T01:23:48.203Z,3.00
2023-02-18T01:24:50.577Z,2.80
2023-02-18T01:27:57.196Z,2.50
2023-02-18T01:30:02.376Z,2.10
2023-02-18T01:31:02.142Z,2.80
2023-02-18T01:32:03.098Z,11.00
2023-02-18T01:33:02.976Z,3.60
2023-02-18T01:34:02.178Z,9.10
2023-02-18T01:35:02.532Z,8.10
2023-02-18T01:36:02.119Z,2.60
2023-02-18T01:37:02.592Z,10.10
2023-02-18T01:38:02.137Z,5.30
2023-02-18T01:39:02.525Z,3.50
2023-02-18T01:40:02.444Z,6.00
2023-02-18T01:41:02.145Z,5.80
2023-02-18T01:42:02.241Z,4.40
2023-02-18T01:43:04.971Z,3.10
2023-02-18T01:44:01.969Z,4.00
2023-02-18T01:45:02.922Z,5.00
2023-02-18T01:46:01.978Z,3.20
2023-02-18T01:47:04.981Z,4.60
2023-02-18T01:48:01.940Z,8.30
2023-02-18T01:49:01.883Z,10.00
2023-02-18T01:50:03.199Z,4.20
2023-02-18T01:51:02.190Z,3.30
2023-02-18T01:52:02.452Z,6.20
2023-02-18T01:53:02.609Z,2.40
2023-02-18T01:54:01.813Z,9.70
2023-02-18T01:55:02.659Z,10.80
2023-02-18T01:56:01.829Z,7.20
2023-02-18T01:57:02.107Z,16.30
2023-02-18T01:58:03.183Z,2.00
2023-02-18T01:59:01.744Z,9.20
2023-02-18T02:00:02.788Z,5.90
2023-02-18T02:01:01.928Z,1.70
2023-02-18T02:02:01.786Z,3.60
2023-02-18T02:03:02.375Z,4.50
2023-02-18T02:04:01.660Z,2.10
2023-02-18T02:05:04.658Z,3.40
2023-02-18T02:06:01.698Z,5.90
2023-02-18T02:07:01.687Z,8.50
2023-02-18T02:08:02.011Z,3.70
2023-02-18T02:09:01.737Z,3.30
2023-02-18T02:10:05.350Z,3.00
2023-02-18T02:12:46.264Z,4.40
2023-02-18T02:13:46.361Z,4.50
2023-02-18T02:14:45.990Z,5.40
2023-02-18T02:15:46.415Z,5.90
2023-02-18T02:16:46.238Z,7.20
2023-02-18T02:17:46.331Z,9.40
2023-02-18T02:18:46.487Z,4.30
2023-02-18T02:19:46.435Z,7.40
2023-02-18T02:20:46.329Z,1.70
2023-02-18T02:21:47.175Z,2.60
2023-02-18T02:22:45.673Z,3.80
2023-02-18T02:23:46.267Z,1.80
2023-02-18T02:24:45.831Z,2.40
2023-02-18T02:25:47.029Z,6.10
2023-02-18T02:26:52.212Z,8.70
2023-02-18T02:27:46.188Z,3.70
2023-02-18T02:28:46.007Z,4.80
2023-02-18T02:29:46.777Z,3.10
2023-02-18T02:30:45.901Z,2.40
2023-02-18T02:31:46.725Z,8.30
2023-02-18T02:32:46.234Z,15.20
2023-02-18T02:33:46.909Z,5.30
2023-02-18T02:34:44.634Z,3.30
2023-02-18T02:35:46.584Z,2.10
2023-02-18T02:36:44.727Z,2.50
2023-02-18T02:37:47.005Z,3.10
2023-02-18T02:38:44.610Z,1.30
2023-02-18T02:39:46.802Z,7.50
2023-02-18T02:40:44.640Z,3.60
2023-02-18T02:41:46.681Z,2.70
2023-02-18T02:42:44.621Z,4.50
2023-02-18T02:43:46.849Z,3.20
2023-02-18T02:44:44.627Z,2.00
2023-02-18T02:45:47.334Z,1.60
2023-02-18T02:46:46.774Z,1.70
2023-02-18T02:47:46.728Z,2.80
2023-02-18T02:48:46.212Z,2.10
2023-02-18T02:49:49.856Z,4.10
2023-02-18T02:50:44.605Z,10.70
2023-02-18T02:51:44.300Z,3.30
2023-02-18T02:52:52.003Z,3.10
2023-02-18T02:53:46.547Z,3.30
2023-02-18T02:54:44.296Z,3.40
2023-02-18T02:55:47.078Z,2.90
2023-02-18T02:56:44.365Z,2.30
2023-02-18T02:57:46.608Z,4.00
2023-02-18T02:58:44.274Z,6.40
2023-02-18T02:59:44.378Z,2.10
2023-02-18T03:00:44.350Z,5.20
2023-02-18T03:01:47.141Z,4.30
2023-02-18T03:02:44.230Z,3.50
2023-02-18T03:03:46.924Z,1.60
2023-02-18T03:04:44.107Z,7.10
2023-02-18T03:05:46.955Z,6.90
2023-02-18T03:06:44.124Z,3.50
2023-02-18T03:07:44.396Z,3.10
2023-02-18T03:08:44.217Z,3.30
2023-02-18T03:09:44.536Z,2.20
2023-02-18T03:10:44.032Z,7.90
2023-02-18T03:11:44.226Z,7.70
2023-02-18T03:12:44.030Z,4.00
2023-02-18T03:13:46.950Z,7.80
2023-02-18T03:14:44.754Z,2.10
2023-02-18T03:15:44.082Z,4.60
2023-02-18T03:16:43.999Z,4.00
2023-02-18T03:17:44.089Z,1.90
2023-02-18T03:18:43.918Z,3.80
2023-02-18T03:19:44.476Z,4.90
2023-02-18T03:20:44.014Z,2.20
2023-02-18T03:21:44.099Z,2.00
2023-02-18T03:22:43.933Z,4.40
2023-02-18T03:23:46.889Z,3.00
2023-02-18T03:24:43.941Z,3.50
2023-02-18T03:25:47.113Z,5.20
2023-02-18T03:26:43.906Z,4.50
2023-02-18T03:27:47.651Z,7.60
2023-02-18T03:28:43.843Z,3.50
2023-02-18T03:29:43.843Z,5.90
2023-02-18T03:30:44.704Z,2.70
2023-02-18T03:31:47.989Z,8.50
2023-02-18T03:32:44.568Z,5.10
2023-02-18T03:33:47.247Z,10.20
2023-02-18T03:34:44.441Z,5.60
2023-02-18T03:35:44.015Z,4.60
2023-02-18T03:36:43.653Z,2.00
2023-02-18T03:37:45.054Z,1.70
2023-02-18T03:38:44.224Z,2.40
2023-02-18T03:39:47.018Z,3.50
2023-02-18T03:40:43.901Z,4.50
2023-02-18T03:41:44.273Z,2.40
2023-02-18T03:42:43.938Z,7.00
2023-02-18T03:43:46.628Z,4.70
2023-02-18T03:44:43.636Z,4.20
2023-02-18T03:45:47.322Z,2.00
2023-02-18T03:46:43.566Z,3.80
2023-02-18T03:47:48.081Z,4.80
2023-02-18T03:48:43.594Z,3.30
2023-02-18T03:49:44.483Z,11.10
2023-02-18T03:50:43.579Z,2.50
2023-02-18T03:51:43.505Z,3.70
2023-02-18T03:52:43.637Z,2.70
2023-02-18T03:53:45.461Z,2.90
2023-02-18T03:54:43.452Z,2.10
2023-02-18T03:55:44.251Z,7.10
2023-02-18T03:56:43.666Z,3.30
2023-02-18T03:57:46.651Z,3.40
2023-02-18T03:58:43.537Z,5.00
2023-02-18T03:59:46.290Z,3.20
2023-02-18T04:00:43.359Z,4.20
2023-02-18T04:01:55.013Z,3.00
2023-02-18T04:02:43.365Z,6.50
2023-02-18T04:03:44.882Z,2.60
2023-02-18T04:04:44.209Z,2.60
2023-02-18T04:05:46.699Z,2.30
2023-02-18T04:06:43.280Z,8.80
2023-02-18T04:07:43.462Z,4.90
2023-02-18T04:08:43.418Z,2.10
2023-02-18T04:09:43.652Z,3.10
2023-02-18T04:10:43.194Z,4.00
2023-02-18T04:11:44.409Z,1.90
2023-02-18T04:12:43.241Z,4.30
2023-02-18T04:13:43.544Z,3.60
2023-02-18T04:14:43.487Z,5.90
2023-02-18T04:15:44.062Z,2.40
2023-02-18T04:16:43.542Z,1.80
2023-02-18T04:17:43.768Z,2.80
2023-02-18T04:18:43.269Z,6.10
2023-02-18T04:19:45.454Z,4.00
2023-02-18T04:20:43.245Z,5.30
2023-02-18T04:22:03.989Z,1.40
2023-02-18T04:22:43.054Z,4.40
2023-02-18T04:23:44.015Z,3.80
2023-02-18T04:24:42.991Z,2.90
2023-02-18T04:25:48.119Z,3.00
2023-02-18T04:26:43.059Z,2.50
2023-02-18T04:27:48.151Z,3.10
2023-02-18T04:28:43.050Z,4.30
2023-02-18T04:29:44.261Z,3.10
2023-02-18T04:30:43.052Z,2.90
2023-02-18T04:31:44.060Z,2.30
2023-02-18T04:32:43.865Z,2.70
2023-02-18T04:33:44.043Z,3.70
2023-02-18T04:34:42.854Z,3.00
2023-02-18T04:35:43.340Z,3.10
2023-02-18T04:36:43.789Z,3.00
2023-02-18T04:37:47.512Z,4.00
2023-02-18T04:38:44.310Z,1.60
2023-02-18T04:39:44.546Z,3.60
2023-02-18T04:40:42.885Z,4.10
2023-02-18T04:41:45.130Z,3.50
2023-02-18T04:42:43.634Z,2.50
2023-02-18T04:43:43.666Z,2.00
2023-02-18T04:44:43.242Z,2.20
2023-02-18T04:45:45.121Z,3.10
2023-02-18T04:46:42.996Z,2.20
2023-02-18T04:47:44.506Z,1.20
2023-02-18T04:48:43.615Z,3.30
2023-02-18T04:49:45.092Z,3.30
2023-02-18T04:50:42.778Z,2.80
2023-02-18T04:51:44.083Z,3.80
2023-02-18T04:52:42.978Z,1.30
2023-02-18T04:53:43.021Z,2.00
2023-02-18T04:54:42.625Z,3.00
2023-02-18T04:55:42.836Z,1.60
2023-02-18T04:56:42.833Z,2.40
2023-02-18T04:57:45.507Z,1.70
2023-02-18T04:58:42.516Z,1.90
2023-02-18T04:59:45.990Z,4.90
2023-02-18T05:00:42.539Z,1.60
2023-02-18T05:01:47.968Z,1.90
2023-02-18T05:02:43.694Z,1.30
2023-02-18T05:03:48.229Z,2.50
2023-02-18T05:04:42.706Z,3.40
2023-02-18T05:05:48.563Z,3.20
2023-02-18T05:06:42.509Z,5.00
2023-02-18T05:07:44.529Z,1.50
2023-02-18T05:08:42.738Z,7.70
2023-02-18T05:09:43.464Z,3.20
2023-02-18T05:10:42.579Z,1.40
2023-02-18T05:11:44.696Z,1.90
2023-02-18T05:12:43.907Z,3.10
2023-02-18T05:13:47.317Z,3.70
2023-02-18T05:14:42.770Z,2.10
2023-02-18T05:15:46.539Z,4.10
2023-02-18T05:16:42.251Z,1.20
2023-02-18T05:17:43.309Z,1.20
2023-02-18T05:18:42.230Z,1.40
2023-02-18T05:19:46.171Z,4.70
2023-02-18T05:20:42.453Z,3.40
2023-02-18T05:21:43.367Z,1.80
2023-02-18T05:22:43.207Z,1.30
2023-02-18T05:23:44.966Z,3.90
2023-02-18T05:24:42.191Z,2.20
2023-02-18T05:25:43.037Z,2.80
2023-02-18T05:26:42.300Z,3.60
2023-02-18T05:27:45.404Z,2.40
2023-02-18T05:28:42.109Z,8.10
2023-02-18T05:29:42.758Z,2.70
2023-02-18T05:30:42.243Z,2.80
2023-02-18T05:31:43.330Z,4.30
2023-02-18T05:32:43.104Z,1.50
2023-02-18T05:33:43.918Z,3.30
2023-02-18T05:34:42.062Z,3.10
2023-02-18T05:35:55.184Z,1.50
2023-02-18T05:36:41.996Z,0.90
2023-02-18T05:37:45.138Z,5.20
2023-02-18T05:38:42.108Z,2.10
2023-02-18T05:39:44.252Z,2.20
2023-02-18T05:40:41.916Z,1.30
2023-02-18T05:41:43.652Z,2.00
2023-02-18T05:42:41.927Z,1.50
2023-02-18T05:43:41.931Z,3.30
2023-02-18T05:44:41.909Z,2.60
2023-02-18T05:45:42.581Z,5.20
2023-02-18T05:46:41.949Z,3.60
2023-02-18T05:47:44.106Z,3.00
2023-02-18T05:48:41.791Z,6.00
2023-02-18T05:49:42.101Z,3.10
2023-02-18T05:50:41.891Z,2.70
2023-02-18T05:51:44.438Z,1.70
2023-02-18T05:52:41.811Z,2.80
2023-02-18T05:53:54.861Z,1.40
2023-02-18T05:54:42.032Z,2.50
2023-02-18T05:55:41.999Z,1.20
2023-02-18T05:56:42.107Z,1.80
2023-02-18T05:57:42.962Z,2.00
2023-02-18T05:58:41.745Z,1.60
2023-02-18T05:59:45.728Z,3.20
2023-02-18T06:00:41.699Z,3.40
2023-02-18T06:01:44.820Z,2.70
2023-02-18T06:02:41.678Z,1.30
2023-02-18T06:03:41.858Z,19.80
2023-02-18T06:04:41.648Z,4.00
2023-02-18T06:05:42.471Z,2.90
2023-02-18T06:06:41.570Z,3.60
2023-02-18T06:07:41.931Z,1.40
2023-02-18T06:08:41.665Z,4.50
2023-02-18T06:09:44.824Z,1.10
2023-02-18T06:10:41.531Z,1.10
2023-02-18T06:11:42.192Z,2.20
2023-02-18T06:12:41.498Z,1.80
2023-02-18T06:13:42.375Z,3.40
2023-02-18T06:14:42.152Z,2.10
2023-02-18T06:15:46.373Z,2.20
2023-02-18T06:16:41.468Z,2.00
2023-02-18T06:17:44.024Z,1.50
2023-02-18T06:18:41.426Z,1.30
2023-02-18T06:19:43.642Z,2.20
2023-02-18T06:20:41.444Z,5.70
2023-02-18T06:21:43.171Z,3.50
2023-02-18T06:22:41.389Z,2.10
2023-02-18T06:23:46.931Z,1.70
2023-02-18T06:24:41.521Z,2.50
2023-02-18T06:25:44.067Z,5.00
2023-02-18T06:26:42.011Z,2.40
2023-02-18T06:27:44.054Z,2.00
2023-02-18T06:28:42.051Z,3.20
2023-02-18T06:29:43.916Z,2.90
2023-02-18T06:30:42.247Z,1.70
2023-02-18T06:31:44.299Z,3.30
2023-02-18T06:32:41.237Z,3.00
2023-02-18T06:33:43.633Z,2.90
2023-02-18T06:34:41.290Z,2.90
2023-02-18T06:35:45.311Z,1.40
2023-02-18T06:36:41.191Z,2.60
2023-02-18T06:37:43.262Z,1.40
2023-02-18T06:38:41.853Z,2.20
2023-02-18T06:39:45.352Z,3.80
2023-02-18T06:40:41.069Z,5.00
2023-02-18T06:41:46.419Z,3.60
2023-02-18T06:42:41.536Z,2.30
2023-02-18T06:43:46.995Z,2.00
2023-02-18T06:44:41.176Z,1.60
2023-02-18T06:45:43.716Z,5.90
2023-02-18T06:46:41.485Z,4.70
2023-02-18T06:47:45.238Z,2.90
2023-02-18T06:48:41.055Z,3.10
2023-02-18T06:49:41.291Z,7.20
2023-02-18T06:50:42.956Z,2.60
2023-02-18T06:51:47.311Z,3.10
2023-02-18T06:52:41.243Z,2.10
2023-02-18T06:53:41.998Z,1.10
2023-02-18T06:54:41.409Z,3.10
2023-02-18T06:55:42.341Z,10.10
2023-02-18T06:56:40.915Z,1.80
2023-02-18T06:57:41.205Z,2.00
2023-02-18T06:58:40.910Z,1.70
2023-02-18T06:59:43.447Z,0.90
2023-02-18T07:00:40.831Z,4.70
2023-02-18T07:01:42.691Z,1.30
2023-02-18T07:02:40.858Z,0.60
2023-02-18T07:03:50.716Z,2.80
2023-02-18T07:04:40.751Z,1.30
2023-02-18T07:05:42.008Z,1.50
2023-02-18T07:06:40.783Z,3.40
2023-02-18T07:07:49.448Z,3.20
2023-02-18T07:08:40.955Z,2.80
2023-02-18T07:09:45.707Z,1.70
2023-02-18T07:10:40.642Z,1.80
2023-02-18T07:11:42.912Z,0.70
2023-02-18T07:12:41.424Z,2.60
2023-02-18T07:13:47.525Z,2.80
2023-02-18T07:14:41.131Z,1.30
2023-02-18T07:15:47.178Z,1.80
2023-02-18T07:16:40.657Z,2.90
2023-02-18T07:17:41.972Z,0.60
2023-02-18T07:18:40.705Z,1.50
2023-02-18T07:19:46.644Z,0.30
2023-02-18T07:20:40.658Z,2.10
2023-02-18T07:21:41.019Z,1.00
2023-02-18T07:22:40.549Z,1.50
2023-02-18T07:23:48.544Z,0.70
2023-02-18T07:24:40.562Z,1.10
2023-02-18T07:25:41.530Z,1.90
2023-02-18T07:26:40.595Z,2.50
2023-02-18T07:27:42.552Z,1.20
2023-02-18T07:28:40.574Z,2.90
2023-02-18T07:29:42.976Z,4.10
2023-02-18T07:30:40.422Z,1.90
2023-02-18T07:31:47.348Z,2.00
2023-02-18T07:32:40.564Z,1.30
2023-02-18T07:33:47.178Z,1.80
2023-02-18T07:34:41.330Z,3.30
2023-02-18T07:35:42.555Z,1.40
2023-02-18T07:36:40.300Z,2.00
2023-02-18T07:37:40.958Z,1.50
2023-02-18T07:38:41.994Z,2.00
2023-02-18T07:39:47.395Z,2.70
2023-02-18T07:40:40.442Z,2.10
2023-02-18T07:41:42.204Z,3.30
2023-02-18T07:42:41.218Z,1.20
2023-02-18T07:43:42.260Z,1.50
2023-02-18T07:44:40.586Z,1.90
2023-02-18T07:45:46.688Z,3.10
2023-02-18T07:46:41.129Z,1.30
2023-02-18T07:47:45.806Z,3.50
2023-02-18T07:48:40.233Z,1.50
2023-02-18T07:49:47.469Z,2.90
2023-02-18T07:50:40.213Z,1.70
2023-02-18T07:51:42.673Z,2.20
2023-02-18T07:52:40.107Z,1.50
2023-02-18T07:53:45.848Z,3.10
2023-02-18T07:54:40.329Z,4.30
2023-02-18T07:55:41.796Z,1.30
2023-02-18T07:56:40.144Z,1.20
2023-02-18T07:57:42.064Z,1.00
2023-02-18T07:58:40.300Z,4.20
2023-02-18T07:59:45.173Z,1.80
2023-02-18T08:00:40.043Z,0.80
2023-02-18T08:01:41.357Z,2.30
2023-02-18T08:02:41.119Z,2.00
2023-02-18T08:03:41.329Z,1.30
2023-02-18T08:04:40.224Z,1.10
2023-02-18T08:05:42.820Z,0.80
2023-02-18T08:06:40.135Z,1.70
2023-02-18T08:07:42.975Z,0.60
2023-02-18T08:08:40.074Z,2.20
2023-02-18T08:09:43.826Z,1.90
2023-02-18T08:10:40.249Z,0.80
2023-02-18T08:11:40.926Z,1.30
2023-02-18T08:12:39.949Z,1.70
2023-02-18T08:13:42.444Z,1.40
2023-02-18T08:14:40.028Z,1.10
2023-02-18T08:15:41.739Z,2.10
2023-02-18T08:16:39.976Z,1.80
2023-02-18T08:17:42.771Z,4.80
2023-02-18T08:18:40.812Z,1.10
2023-02-18T08:19:44.370Z,3.10
2023-02-18T08:20:40.781Z,0.70
2023-02-18T08:21:45.471Z,1.60
2023-02-18T08:22:39.744Z,4.30
2023-02-18T08:23:41.899Z,2.30
2023-02-18T08:24:40.191Z,1.20
2023-02-18T08:25:42.093Z,1.60
2023-02-18T08:26:48.577Z,1.60
2023-02-18T08:27:46.745Z,2.60
2023-02-18T08:28:40.599Z,1.40
2023-02-18T08:29:41.824Z,1.10
2023-02-18T08:30:40.142Z,2.40
2023-02-18T08:31:44.938Z,0.60
2023-02-18T08:32:39.688Z,1.10
2023-02-18T08:33:40.725Z,1.50
2023-02-18T08:34:40.446Z,0.90
2023-02-18T08:35:44.823Z,1.00
2023-02-18T08:36:39.452Z,1.10
2023-02-18T08:37:52.785Z,0.90
2023-02-18T08:38:40.604Z,1.70
2023-02-18T08:39:46.624Z,3.00
2023-02-18T08:40:39.493Z,2.10
2023-02-18T08:41:43.154Z,2.70
2023-02-18T08:42:39.444Z,3.20
2023-02-18T08:43:43.131Z,3.00
2023-02-18T08:44:40.406Z,1.00
2023-02-18T08:45:43.284Z,3.60
2023-02-18T08:46:39.430Z,2.10
2023-02-18T08:48:16.914Z,1.50
2023-02-18T08:48:41.298Z,1.50
2023-02-18T08:49:45.846Z,0.60
2023-02-18T08:50:39.443Z,2.60
2023-02-18T08:51:44.555Z,2.70
2023-02-18T08:52:39.219Z,2.80
2023-02-18T08:53:41.886Z,5.50
2023-02-18T08:54:39.233Z,3.20
2023-02-18T08:55:39.999Z,1.60
2023-02-18T08:56:39.592Z,1.70
2023-02-18T08:57:45.177Z,7.00
2023-02-18T08:58:39.159Z,2.30
2023-02-18T08:59:44.894Z,2.30
2023-02-18T09:00:39.158Z,5.80
2023-02-18T09:01:53.028Z,1.40
2023-02-18T09:02:39.500Z,1.40
2023-02-18T09:03:46.486Z,4.50
2023-02-18T09:04:40.981Z,1.10
2023-02-18T09:05:43.611Z,1.20
2023-02-18T09:06:39.020Z,1.00
2023-02-18T09:07:44.758Z,5.80
2023-02-18T09:08:40.665Z,1.60
2023-02-18T09:09:41.342Z,4.50
2023-02-18T09:10:39.009Z,0.90
2023-02-18T09:11:45.512Z,3.40
2023-02-18T09:12:39.100Z,3.20
2023-02-18T09:13:50.969Z,1.60
2023-02-18T09:14:39.257Z,3.50
2023-02-18T09:15:44.655Z,1.10
2023-02-18T09:16:39.975Z,3.00
2023-02-18T09:17:44.023Z,1.20
2023-02-18T09:18:42.320Z,1.60
2023-02-18T09:19:46.761Z,21.70
2023-02-18T09:20:39.245Z,1.40
2023-02-18T09:21:47.827Z,2.00
2023-02-18T09:22:39.464Z,1.80
2023-02-18T09:23:52.737Z,1.60
2023-02-18T09:24:43.017Z,6.50
2023-02-18T09:26:01.318Z,0.80
2023-02-18T09:26:46.517Z,3.10
2023-02-18T09:28:02.367Z,4.10
2023-02-18T09:28:41.291Z,2.00
2023-02-18T09:29:47.580Z,1.50
2023-02-18T09:30:43.826Z,2.40
2023-02-18T09:32:00.009Z,1.50
2023-02-18T09:32:39.337Z,5.40
2023-02-18T09:33:59.727Z,2.00
2023-02-18T09:34:41.249Z,1.80
2023-02-18T09:35:45.634Z,2.30
2023-02-18T09:36:39.089Z,0.90
2023-02-18T09:37:48.065Z,3.00
2023-02-18T09:38:39.397Z,1.10
2023-02-18T09:39:46.210Z,3.00
2023-02-18T09:40:38.620Z,2.40
2023-02-18T09:41:44.804Z,7.50
2023-02-18T09:42:39.558Z,2.20
2023-02-18T09:43:53.074Z,2.30
2023-02-18T09:44:38.559Z,1.80
2023-02-18T09:45:47.931Z,2.40
2023-02-18T09:46:39.196Z,1.20
2023-02-18T09:47:51.176Z,2.90
2023-02-18T09:48:38.589Z,0.90
2023-02-18T09:49:48.212Z,2.10
2023-02-18T09:50:38.512Z,2.50
2023-02-18T09:51:47.617Z,2.50
2023-02-18T09:52:38.458Z,2.00
2023-02-18T09:53:53.113Z,1.10
2023-02-18T09:54:38.825Z,0.90
2023-02-18T09:55:46.532Z,1.50
2023-02-18T09:56:40.469Z,3.40
2023-02-18T09:57:47.599Z,0.80
2023-02-18T09:58:38.691Z,0.90
2023-02-18T09:59:46.435Z,0.90
2023-02-18T10:00:38.583Z,1.30
2023-02-18T10:01:48.243Z,1.60
2023-02-18T10:02:38.305Z,1.40
2023-02-18T10:03:53.166Z,1.00
2023-02-18T10:04:39.716Z,1.70
2023-02-18T10:05:51.608Z,1.90
2023-02-18T10:06:38.526Z,0.80
2023-02-18T10:07:47.309Z,0.70
2023-02-18T10:08:38.739Z,1.40
2023-02-18T10:09:47.973Z,1.50
2023-02-18T10:10:38.279Z,2.80
2023-02-18T10:11:47.519Z,1.60
2023-02-18T10:12:38.178Z,1.60
2023-02-18T10:13:43.952Z,0.60
2023-02-18T10:14:38.255Z,5.90
2023-02-18T10:15:51.718Z,0.60
2023-02-18T10:16:38.170Z,1.40
2023-02-18T10:17:47.586Z,1.30
2023-02-18T10:18:38.754Z,2.50
2023-02-18T10:19:45.072Z,1.00
2023-02-18T10:20:38.488Z,1.20
2023-02-18T10:21:44.026Z,0.70
2023-02-18T10:22:38.603Z,0.80
2023-02-18T10:23:45.694Z,1.20
2023-02-18T10:24:38.432Z,1.70
2023-02-18T10:25:46.583Z,1.80
2023-02-18T10:26:37.957Z,2.00
2023-02-18T10:27:40.628Z,0.40
2023-02-18T10:28:37.948Z,1.70
2023-02-18T10:29:40.791Z,1.00
2023-02-18T10:30:38.935Z,0.70
2023-02-18T10:31:47.677Z,0.80
2023-02-18T10:32:38.132Z,2.80
2023-02-18T10:33:44.831Z,1.90
2023-02-18T10:34:37.856Z,1.30
2023-02-18T10:35:40.602Z,1.50
2023-02-18T10:36:37.866Z,4.80
2023-02-18T10:37:45.540Z,1.80
2023-02-18T10:38:37.750Z,2.10
2023-02-18T10:39:43.772Z,2.20
2023-02-18T10:40:37.729Z,0.30
2023-02-18T10:41:42.990Z,1.20
2023-02-18T10:42:38.748Z,0.90
2023-02-18T10:43:42.975Z,0.60
2023-02-18T10:44:38.970Z,1.10
2023-02-18T10:45:46.471Z,3.20
2023-02-18T10:46:37.787Z,16.30
2023-02-18T10:47:41.392Z,4.00
2023-02-18T10:48:37.817Z,1.70
2023-02-18T10:49:44.375Z,2.40
2023-02-18T10:50:37.846Z,0.50
2023-02-18T10:51:52.534Z,1.60
2023-02-18T10:52:39.030Z,0.70
2023-02-18T10:54:02.699Z,1.10
2023-02-18T10:54:42.413Z,1.00
2023-02-18T10:55:39.905Z,4.70
2023-02-18T10:56:38.601Z,0.50
2023-02-18T10:57:46.635Z,1.10
2023-02-18T10:58:37.537Z,2.20
2023-02-18T10:59:48.664Z,1.80
2023-02-18T11:00:37.430Z,2.20
2023-02-18T11:01:45.627Z,1.70
2023-02-18T11:02:37.439Z,2.10
2023-02-18T11:03:45.073Z,0.40
2023-02-18T11:04:37.590Z,1.60
2023-02-18T11:05:47.324Z,1.90
2023-02-18T11:06:37.404Z,1.40
2023-02-18T11:07:47.340Z,0.80
2023-02-18T11:08:37.301Z,1.90
2023-02-18T11:09:47.051Z,2.30
2023-02-18T11:10:37.638Z,0.80
2023-02-18T11:11:50.683Z,0.70
2023-02-18T11:12:39.262Z,1.80
2023-02-18T11:13:46.972Z,3.00
2023-02-18T11:14:38.462Z,2.30
2023-02-18T11:15:47.936Z,0.30
2023-02-18T11:16:37.263Z,5.70
2023-02-18T11:17:41.508Z,0.90
2023-02-18T11:18:38.204Z,4.30
2023-02-18T11:19:48.237Z,0.50
2023-02-18T11:20:37.230Z,0.90
2023-02-18T11:21:45.961Z,5.10
2023-02-18T11:22:37.115Z,2.20
2023-02-18T11:23:46.110Z,0.80
2023-02-18T11:24:37.072Z,1.30
2023-02-18T11:25:42.108Z,1.30
2023-02-18T11:26:37.416Z,2.10
2023-02-18T11:27:43.688Z,0.40
2023-02-18T11:28:59.086Z,3.20
2023-02-18T11:29:47.762Z,1.10
2023-02-18T11:30:37.154Z,0.70
2023-02-18T11:31:47.718Z,1.90
2023-02-18T11:32:37.989Z,2.30
2023-02-18T11:33:46.984Z,1.90
2023-02-18T11:34:40.768Z,1.30
2023-02-18T11:35:52.955Z,1.30
2023-02-18T11:36:38.793Z,1.90
2023-02-18T11:37:48.283Z,1.90
2023-02-18T11:38:37.163Z,5.10
2023-02-18T11:39:39.139Z,1.80
2023-02-18T11:40:36.885Z,5.40
2023-02-18T11:41:37.991Z,1.20
2023-02-18T11:42:39.115Z,1.20
2023-02-18T11:43:43.475Z,1.00
2023-02-18T11:44:36.854Z,2.30
2023-02-18T11:45:39.094Z,195.80
2023-02-18T11:46:36.883Z,665.30
2023-02-18T11:47:40.408Z,430.50
2023-02-18T11:48:36.865Z,423.40
2023-02-18T11:49:39.628Z,391.80
2023-02-18T11:50:37.044Z,612.30
2023-02-18T11:51:43.568Z,897.70
2023-02-18T11:52:36.768Z,669.40
2023-02-18T11:53:39.870Z,623.70
2023-02-18T11:54:36.729Z,549.60
2023-02-18T11:55:46.744Z,375.00
2023-02-18T11:56:36.637Z,305.40
2023-02-18T11:57:37.368Z,614.00
2023-02-18T11:58:36.753Z,675.50
2023-02-18T11:59:38.993Z,650.50
2023-02-18T12:00:36.724Z,505.70
2023-02-18T12:01:38.418Z,525.90
2023-02-18T12:02:36.635Z,647.10
2023-02-18T12:03:40.532Z,462.60
2023-02-18T12:04:36.983Z,339.90
2023-02-18T12:05:46.131Z,260.10
2023-02-18T12:06:36.560Z,265.90
2023-02-18T12:07:38.236Z,202.30
2023-02-18T12:08:36.507Z,124.50
2023-02-18T12:09:39.099Z,66.50
2023-02-18T12:10:36.538Z,54.10
2023-02-18T12:11:39.219Z,36.00
2023-02-18T12:12:37.360Z,13.10
2023-02-18T12:13:44.811Z,15.40
2023-02-18T12:14:36.507Z,10.00
2023-02-18T12:15:37.250Z,2.30
2023-02-18T12:16:36.511Z,3.20
2023-02-18T12:17:38.776Z,5.40
2023-02-18T12:18:38.791Z,7.50
2023-02-18T12:19:36.870Z,5.10
2023-02-18T12:20:36.374Z,2.00
2023-02-18T12:21:37.360Z,4.80
2023-02-18T12:22:36.315Z,0.90
2023-02-18T12:23:36.404Z,8.00
2023-02-18T12:24:36.338Z,1.50
2023-02-18T12:25:44.541Z,5.20
2023-02-18T12:26:36.316Z,1.90
2023-02-18T12:27:38.500Z,5.50
2023-02-18T12:28:36.280Z,2.80
2023-02-18T12:29:39.831Z,3.00
2023-02-18T12:30:36.386Z,0.50
2023-02-18T12:31:40.229Z,0.60
2023-02-18T12:32:36.448Z,4.30
2023-02-18T12:33:39.098Z,1.70
2023-02-18T12:34:36.867Z,1.00
2023-02-18T12:35:39.623Z,2.10
2023-02-18T12:36:36.111Z,2.60
2023-02-18T12:37:42.272Z,8.60
2023-02-18T12:38:36.221Z,0.70
2023-02-18T12:39:42.191Z,1.00
2023-02-18T12:40:36.096Z,1.60
2023-02-18T12:41:40.292Z,4.20
2023-02-18T12:42:36.177Z,0.90
2023-02-18T12:43:39.642Z,0.70
2023-02-18T12:44:36.575Z,4.90
2023-02-18T12:45:37.522Z,0.70
2023-02-18T12:46:36.091Z,1.50
2023-02-18T12:47:40.740Z,1.30
2023-02-18T12:48:35.874Z,1.30
2023-02-18T12:49:38.248Z,1.30
2023-02-18T12:50:35.866Z,5.40
2023-02-18T12:51:42.460Z,2.20
2023-02-18T12:52:35.872Z,0.60
2023-02-18T12:53:39.831Z,1.40
2023-02-18T12:54:35.856Z,1.70
2023-02-18T12:55:36.801Z,0.70
2023-02-18T12:56:35.871Z,0.80
2023-02-18T12:57:41.887Z,0.30
2023-02-18T12:58:35.908Z,0.40
2023-02-18T12:59:38.596Z,0.40
2023-02-18T13:00:35.759Z,0.70
2023-02-18T13:01:38.998Z,5.30
2023-02-18T13:02:35.731Z,0.60
2023-02-18T13:03:39.103Z,1.20
2023-02-18T13:04:36.787Z,1.20
2023-02-18T13:05:41.274Z,1.30
2023-02-18T13:06:35.747Z,1.10
2023-02-18T13:07:36.601Z,1.90
2023-02-18T13:08:36.614Z,0.60
2023-02-18T13:09:41.687Z,2.60
2023-02-18T13:10:35.721Z,0.90
2023-02-18T13:11:36.354Z,2.20
2023-02-18T13:12:35.633Z,0.50
2023-02-18T13:13:40.215Z,0.70
2023-02-18T13:14:35.876Z,224.70
2023-02-18T13:15:41.904Z,26.30
2023-02-18T13:16:35.631Z,3.90
2023-02-18T13:17:37.783Z,2.20
2023-02-18T13:18:36.467Z,1.50
2023-02-18T13:19:37.124Z,109.00
2023-02-18T13:20:35.479Z,402.00
2023-02-18T13:21:35.620Z,740.00
2023-02-18T13:22:35.461Z,435.60